Time;durP1;ratioP1;P1;durP2;ratioP2;P2;SDS_P1;SDS_P2;PMS_P1;PMS_P2;Temp;Humidity;BMP_temperature;BMP_pressure;BME280_temperature;BME280_humidity;BME280_pressure;Samples;Min_cycle;Max_cycle;Signal;HPM_P1;HPM_P2
2021/05/23 00:01:12;;;;;;;2.50;2.30;;;;;;;;;;5092824;28;20085;-62
2021/05/23 00:03:38;;;;;;;5.13;3.85;;;;;;;;;;5092814;28;20020;-62
2021/05/23 00:06:04;;;;;;;6.97;5.15;;;;;;;;;;5092723;28;20486;-62
2021/05/23 00:08:29;;;;;;;9.10;4.90;;;;;;;;;;5092873;28;20085;-63
2021/05/23 00:10:58;;;;;;;5.70;3.28;;;;;;;;;;5092977;28;20035;-63
2021/05/23 00:13:32;;;;;;;6.03;3.55;;;;;;;;;;5092872;28;20026;-63
2021/05/23 00:16:11;;;;;;;6.43;3.70;;;;;;;;;;5092749;28;20035;-63
2021/05/23 00:18:41;;;;;;;6.55;3.38;;;;;;;;;;5092631;28;20039;-62
2021/05/23 00:21:15;;;;;;;10.15;3.83;;;;;;;;;;5092718;28;20482;-62
2021/05/23 00:23:40;;;;;;;8.45;4.18;;;;;;;;;;5092766;28;20032;-62
2021/05/23 00:26:06;;;;;;;8.07;3.38;;;;;;;;;;5092705;28;20041;-62
2021/05/23 00:28:31;;;;;;;6.65;3.90;;;;;;;;;;5092761;28;20028;-62
2021/05/23 00:30:57;;;;;;;5.75;3.75;;;;;;;;;;5092759;28;20020;-62
2021/05/23 00:33:23;;;;;;;6.60;3.28;;;;;;;;;;5092624;28;20489;-62
2021/05/23 00:35:49;;;;;;;3.35;2.90;;;;;;;;;;5092011;28;20062;-62
2021/05/23 00:38:14;;;;;;;3.50;2.97;;;;;;;;;;5092640;28;20036;-62
2021/05/23 00:40:40;;;;;;;3.00;2.80;;;;;;;;;;5092581;28;20024;-62
2021/05/23 00:43:09;;;;;;;3.72;2.70;;;;;;;;;;5096165;28;20039;-62
2021/05/23 00:45:35;;;;;;;2.50;2.30;;;;;;;;;;5096201;28;20048;-62
2021/05/23 00:48:00;;;;;;;2.38;2.15;;;;;;;;;;5096135;28;20077;-62
2021/05/23 00:50:26;;;;;;;3.35;3.05;;;;;;;;;;5096096;28;20380;-62
2021/05/23 00:52:52;;;;;;;8.95;6.13;;;;;;;;;;5095917;28;20450;-62
2021/05/23 00:55:19;;;;;;;8.38;6.78;;;;;;;;;;5095915;28;20126;-62
2021/05/23 00:57:45;;;;;;;8.77;6.72;;;;;;;;;;5094745;28;20059;-61
2021/05/23 01:00:11;;;;;;;8.38;5.82;;;;;;;;;;5095938;28;20100;-61
2021/05/23 01:02:45;;;;;;;4.07;3.47;;;;;;;;;;5095749;28;20032;-62
2021/05/23 01:05:13;;;;;;;5.88;5.32;;;;;;;;;;5095855;28;20123;-62
2021/05/23 01:07:39;;;;;;;6.82;6.03;;;;;;;;;;5095878;28;20414;-61
2021/05/23 01:10:31;;;;;;;10.10;7.35;;;;;;;;;;5095740;28;20028;-62
2021/05/23 01:12:57;;;;;;;8.10;7.15;;;;;;;;;;5093508;28;20486;-62
2021/05/23 01:15:44;;;;;;;4.18;3.97;;;;;;;;;;5095675;28;20027;-62
2021/05/23 01:18:13;;;;;;;3.08;2.85;;;;;;;;;;5095581;28;20081;-62
2021/05/23 01:20:48;;;;;;;3.05;2.70;;;;;;;;;;5095515;28;20028;-62
2021/05/23 01:23:20;;;;;;;3.25;3.03;;;;;;;;;;5095637;28;20106;-62
2021/05/23 01:25:46;;;;;;;2.80;2.60;;;;;;;;;;5095464;28;20393;-62
2021/05/23 01:28:12;;;;;;;2.67;2.47;;;;;;;;;;5095391;28;20425;-62
2021/05/23 01:30:45;;;;;;;2.90;2.70;;;;;;;;;;5095293;28;20020;-62
2021/05/23 01:33:13;;;;;;;2.70;2.50;;;;;;;;;;5095356;28;20433;-62
2021/05/23 01:35:40;;;;;;;2.60;2.40;;;;;;;;;;5094846;28;20044;-62
2021/05/23 01:38:13;;;;;;;3.13;2.80;;;;;;;;;;5095072;28;20024;-62
2021/05/23 01:40:39;;;;;;;10.48;7.57;;;;;;;;;;5095213;28;20070;-62
2021/05/23 01:43:05;;;;;;;3.92;3.58;;;;;;;;;;5095090;28;20434;-62
2021/05/23 01:45:30;;;;;;;18.20;13.38;;;;;;;;;;5093734;28;20031;-62
2021/05/23 01:47:56;;;;;;;31.45;22.05;;;;;;;;;;5095065;28;20035;-62
2021/05/23 01:50:23;;;;;;;17.05;10.77;;;;;;;;;;5095105;28;20103;-62
2021/05/23 01:52:53;;;;;;;13.27;10.00;;;;;;;;;;5094830;28;20069;-62
2021/05/23 01:55:19;;;;;;;22.48;14.93;;;;;;;;;;5093478;28;20032;-62
2021/05/23 01:57:45;;;;;;;32.50;19.98;;;;;;;;;;5093540;28;20508;-62
2021/05/23 02:00:11;;;;;;;34.92;21.13;;;;;;;;;;5094799;28;20409;-61
2021/05/23 02:02:37;;;;;;;38.55;24.02;;;;;;;;;;5093300;28;20031;-62
2021/05/23 02:05:03;;;;;;;53.13;31.08;;;;;;;;;;5094579;28;20028;-61
2021/05/23 02:07:28;;;;;;;64.13;39.15;;;;;;;;;;5093175;28;20016;-61
2021/05/23 02:09:55;;;;;;;51.50;32.15;;;;;;;;;;5094435;28;20377;-62
2021/05/23 02:12:21;;;;;;;50.08;32.25;;;;;;;;;;5094464;28;20016;-61
2021/05/23 02:14:47;;;;;;;34.78;22.80;;;;;;;;;;5093208;28;20082;-62
2021/05/23 02:17:12;;;;;;;20.75;16.08;;;;;;;;;;5094447;28;20490;-62
2021/05/23 02:19:38;;;;;;;21.40;15.10;;;;;;;;;;5094342;28;20024;-62
2021/05/23 02:22:07;;;;;;;20.48;15.93;;;;;;;;;;5094247;28;20024;-62
2021/05/23 02:24:32;;;;;;;18.33;12.88;;;;;;;;;;5093007;28;20028;-62
2021/05/23 02:26:59;;;;;;;14.10;10.60;;;;;;;;;;5094050;28;20069;-62
2021/05/23 02:29:24;;;;;;;13.57;9.85;;;;;;;;;;5094407;28;20020;-62
2021/05/23 02:31:49;;;;;;;4.97;4.50;;;;;;;;;;5094495;28;20020;-62
2021/05/23 02:34:15;;;;;;;4.32;4.03;;;;;;;;;;5092810;28;20148;-62
2021/05/23 02:36:40;;;;;;;5.50;4.32;;;;;;;;;;5093848;28;20044;-62
2021/05/23 02:39:06;;;;;;;4.63;3.53;;;;;;;;;;5094008;28;20478;-63
2021/05/23 02:41:31;;;;;;;2.60;2.38;;;;;;;;;;5093927;28;20023;-62
2021/05/23 02:43:57;;;;;;;2.88;2.55;;;;;;;;;;5093906;28;20035;-63
2021/05/23 02:46:22;;;;;;;2.97;2.75;;;;;;;;;;5093809;28;20024;-63
2021/05/23 02:48:48;;;;;;;3.05;2.50;;;;;;;;;;5093757;28;20387;-62
2021/05/23 02:51:13;;;;;;;2.90;2.70;;;;;;;;;;5093751;28;20020;-62
2021/05/23 02:53:39;;;;;;;2.70;2.50;;;;;;;;;;5093716;28;20036;-63
2021/05/23 02:56:04;;;;;;;3.08;2.85;;;;;;;;;;5093762;28;20031;-63
2021/05/23 02:58:30;;;;;;;4.75;4.35;;;;;;;;;;5093667;28;20031;-63
2021/05/23 03:00:55;;;;;;;5.35;4.35;;;;;;;;;;5093529;28;20138;-62
2021/05/23 03:03:21;;;;;;;4.75;4.35;;;;;;;;;;5093829;28;20035;-62
2021/05/23 03:05:48;;;;;;;5.07;4.60;;;;;;;;;;5093285;28;20027;-62
2021/05/23 03:08:14;;;;;;;5.93;5.25;;;;;;;;;;5093486;28;20060;-63
2021/05/23 03:10:47;;;;;;;5.60;5.05;;;;;;;;;;5092226;28;20047;-62
2021/05/23 03:13:13;;;;;;;6.03;5.50;;;;;;;;;;5093602;28;20028;-62
2021/05/23 03:15:38;;;;;;;11.15;9.93;;;;;;;;;;5093502;28;20031;-62
2021/05/23 03:18:04;;;;;;;7.72;6.93;;;;;;;;;;5093503;28;20465;-62
2021/05/23 03:20:30;;;;;;;8.77;7.88;;;;;;;;;;5093499;28;20044;-62
2021/05/23 03:22:57;;;;;;;9.15;7.20;;;;;;;;;;5093250;28;20529;-62
2021/05/23 03:25:23;;;;;;;3.58;3.28;;;;;;;;;;5093499;28;20031;-62
2021/05/23 03:27:49;;;;;;;3.22;3.03;;;;;;;;;;5093208;28;20028;-62
2021/05/23 03:30:16;;;;;;;3.47;2.70;;;;;;;;;;5093069;28;20012;-62
2021/05/23 03:32:42;;;;;;;2.92;2.60;;;;;;;;;;5093277;28;20028;-62
2021/05/23 03:35:08;;;;;;;3.17;2.85;;;;;;;;;;5092815;28;20047;-62
2021/05/23 03:37:34;;;;;;;3.85;2.53;;;;;;;;;;5093228;28;20126;-62
2021/05/23 03:39:59;;;;;;;7.28;6.57;;;;;;;;;;5093135;28;20454;-62
2021/05/23 03:42:25;;;;;;;8.75;7.95;;;;;;;;;;5093041;28;20032;-62
2021/05/23 03:44:50;;;;;;;8.02;7.15;;;;;;;;;;5093015;28;20016;-61
2021/05/23 03:47:16;;;;;;;9.85;8.55;;;;;;;;;;5093067;28;20028;-62
2021/05/23 03:49:41;;;;;;;7.15;6.45;;;;;;;;;;5093040;28;20360;-62
2021/05/23 03:52:08;;;;;;;6.70;6.07;;;;;;;;;;5092963;28;20027;-62
2021/05/23 03:54:33;;;;;;;5.47;4.70;;;;;;;;;;5093074;28;20106;-62
2021/05/23 03:56:59;;;;;;;10.45;8.25;;;;;;;;;;5092676;28;20162;-62
2021/05/23 03:59:24;;;;;;;14.07;10.20;;;;;;;;;;5092967;28;20028;-62
2021/05/23 04:01:51;;;;;;;7.28;6.25;;;;;;;;;;5092793;28;20474;-62
2021/05/23 04:04:17;;;;;;;10.02;7.07;;;;;;;;;;5093006;28;20031;-62
2021/05/23 04:06:43;;;;;;;7.97;6.53;;;;;;;;;;5092904;28;20032;-62
2021/05/23 04:09:08;;;;;;;5.70;5.00;;;;;;;;;;5092805;28;20020;-62
2021/05/23 04:11:37;;;;;;;6.25;4.82;;;;;;;;;;5092853;28;20446;-62
2021/05/23 04:14:03;;;;;;;5.43;4.55;;;;;;;;;;5092947;28;20201;-62
2021/05/23 04:16:29;;;;;;;3.40;3.10;;;;;;;;;;5094196;28;20032;-62
2021/05/23 04:18:54;;;;;;;5.53;3.58;;;;;;;;;;5096656;28;20030;-62
2021/05/23 04:21:20;;;;;;;4.40;3.42;;;;;;;;;;5096497;28;20063;-62
2021/05/23 04:23:45;;;;;;;4.00;3.08;;;;;;;;;;5096590;28;20016;-62
2021/05/23 04:26:11;;;;;;;6.57;3.28;;;;;;;;;;5096591;28;20066;-62
2021/05/23 04:28:36;;;;;;;5.97;3.47;;;;;;;;;;5095161;28;20022;-62
2021/05/23 04:31:02;;;;;;;6.38;4.13;;;;;;;;;;5096622;28;20028;-62
2021/05/23 04:33:27;;;;;;;5.65;4.35;;;;;;;;;;5096443;28;20477;-62
2021/05/23 04:35:53;;;;;;;7.07;4.28;;;;;;;;;;5096065;28;20192;-62
2021/05/23 04:38:18;;;;;;;8.32;4.60;;;;;;;;;;5096444;28;20405;-62
2021/05/23 04:40:44;;;;;;;6.75;4.03;;;;;;;;;;5095015;28;20032;-62
2021/05/23 04:43:09;;;;;;;7.32;4.10;;;;;;;;;;5096276;28;20536;-62
2021/05/23 04:45:37;;;;;;;5.90;3.83;;;;;;;;;;5096203;28;20473;-62
2021/05/23 04:48:03;;;;;;;8.27;3.63;;;;;;;;;;5096206;28;20027;-62
2021/05/23 04:50:28;;;;;;;5.35;3.70;;;;;;;;;;5096220;28;20427;-62
2021/05/23 04:52:54;;;;;;;6.55;4.10;;;;;;;;;;5095709;28;20047;-62
2021/05/23 04:55:20;;;;;;;4.45;3.00;;;;;;;;;;5095922;28;20547;-62
2021/05/23 04:57:45;;;;;;;4.38;2.97;;;;;;;;;;5096068;28;20095;-63
2021/05/23 05:00:11;;;;;;;3.28;2.63;;;;;;;;;;5095916;28;20028;-62
2021/05/23 05:02:38;;;;;;;2.97;2.67;;;;;;;;;;5095740;28;20476;-62
2021/05/23 05:05:04;;;;;;;4.30;3.17;;;;;;;;;;5095842;28;20067;-62
2021/05/23 05:07:30;;;;;;;4.75;3.00;;;;;;;;;;5095867;28;20062;-62
2021/05/23 05:09:55;;;;;;;3.30;3.00;;;;;;;;;;5095842;28;20386;-62
2021/05/23 05:12:21;;;;;;;4.18;2.95;;;;;;;;;;5095858;28;20024;-62
2021/05/23 05:14:46;;;;;;;4.63;3.20;;;;;;;;;;5095557;28;20061;-62
2021/05/23 05:17:12;;;;;;;3.40;2.60;;;;;;;;;;5095521;28;20012;-62
2021/05/23 05:19:38;;;;;;;3.88;2.40;;;;;;;;;;5095558;28;20440;-62
2021/05/23 05:22:04;;;;;;;3.60;2.60;;;;;;;;;;5095454;28;20024;-62
2021/05/23 05:24:29;;;;;;;3.58;1.98;;;;;;;;;;5095552;28;20023;-62
2021/05/23 05:26:55;;;;;;;2.65;2.25;;;;;;;;;;5095120;28;20074;-61
2021/05/23 05:29:21;;;;;;;3.95;2.72;;;;;;;;;;5087514;28;20497;-61
2021/05/23 05:31:47;;;;;;;3.08;2.20;;;;;;;;;;5090860;28;20032;-61
2021/05/23 05:34:12;;;;;;;3.63;2.10;;;;;;;;;;5090525;28;20058;-62
2021/05/23 05:36:38;;;;;;;5.28;3.80;;;;;;;;;;5090196;28;20082;-61
2021/05/23 05:39:05;;;;;;;8.15;4.28;;;;;;;;;;5089930;28;20032;-65
2021/05/23 05:41:30;;;;;;;5.60;3.50;;;;;;;;;;5090416;28;20020;-65
2021/05/23 05:43:56;;;;;;;3.97;3.13;;;;;;;;;;5090515;28;20478;-66
2021/05/23 05:46:21;;;;;;;2.92;2.53;;;;;;;;;;5090339;28;20051;-66
2021/05/23 05:48:47;;;;;;;2.65;2.45;;;;;;;;;;5089522;28;20024;-66
2021/05/23 05:51:12;;;;;;;2.50;2.30;;;;;;;;;;5090287;28;20032;-66
2021/05/23 05:53:38;;;;;;;2.60;2.10;;;;;;;;;;5090283;28;20090;-66
2021/05/23 05:56:03;;;;;;;2.47;2.33;;;;;;;;;;5089900;28;20036;-67
2021/05/23 05:58:29;;;;;;;2.65;2.13;;;;;;;;;;5089815;28;20130;-67
2021/05/23 06:00:54;;;;;;;2.88;2.40;;;;;;;;;;5089965;28;20027;-67
2021/05/23 06:03:20;;;;;;;4.10;2.20;;;;;;;;;;5089953;28;20028;-67
2021/05/23 06:05:45;;;;;;;2.63;2.40;;;;;;;;;;5089936;28;20084;-68
2021/05/23 06:08:12;;;;;;;2.40;2.20;;;;;;;;;;5089680;28;20186;-67
2021/05/23 06:10:37;;;;;;;2.00;1.88;;;;;;;;;;5089958;28;20024;-65
2021/05/23 06:13:04;;;;;;;2.72;1.90;;;;;;;;;;5088411;28;20055;-64
2021/05/23 06:15:30;;;;;;;2.20;2.00;;;;;;;;;;5089902;28;20039;-65
2021/05/23 06:17:55;;;;;;;3.92;2.28;;;;;;;;;;5088018;28;20028;-65
2021/05/23 06:20:21;;;;;;;5.03;3.08;;;;;;;;;;5088419;28;20016;-65
2021/05/23 06:22:46;;;;;;;4.55;3.13;;;;;;;;;;5089769;28;20599;-65
2021/05/23 06:25:12;;;;;;;3.78;2.47;;;;;;;;;;5089753;28;20018;-65
2021/05/23 06:27:37;;;;;;;4.93;2.60;;;;;;;;;;5089756;28;20028;-65
2021/05/23 06:30:04;;;;;;;3.72;2.28;;;;;;;;;;5089449;28;20480;-65
2021/05/23 06:32:29;;;;;;;2.25;2.05;;;;;;;;;;5088102;28;20039;-65
2021/05/23 06:34:55;;;;;;;1.88;1.60;;;;;;;;;;5089226;28;20056;-65
2021/05/23 06:37:20;;;;;;;3.50;2.08;;;;;;;;;;5089584;28;20040;-65
2021/05/23 06:39:46;;;;;;;2.22;2.03;;;;;;;;;;5088365;28;20032;-68
2021/05/23 06:42:11;;;;;;;2.78;2.00;;;;;;;;;;5088956;28;20501;-68
2021/05/23 06:44:37;;;;;;;2.40;1.85;;;;;;;;;;5089380;28;20020;-68
2021/05/23 06:47:03;;;;;;;2.13;1.92;;;;;;;;;;5089501;28;20024;-68
2021/05/23 06:49:28;;;;;;;3.67;2.22;;;;;;;;;;5088897;28;20492;-68
2021/05/23 06:51:54;;;;;;;2.42;2.22;;;;;;;;;;5089323;28;20073;-63
2021/05/23 06:54:20;;;;;;;9.07;3.25;;;;;;;;;;5088984;28;20057;-66
2021/05/23 06:56:45;;;;;;;3.58;2.60;;;;;;;;;;5089142;28;20128;-61
2021/05/23 06:59:11;;;;;;;2.30;2.10;;;;;;;;;;5088766;28;20077;-61
2021/05/23 07:01:37;;;;;;;3.67;2.42;;;;;;;;;;5089087;28;20034;-61
2021/05/23 07:04:03;;;;;;;2.40;2.20;;;;;;;;;;5087314;28;20466;-61
2021/05/23 07:06:28;;;;;;;1.73;1.42;;;;;;;;;;5088740;28;20055;-60
2021/05/23 07:08:53;;;;;;;1.83;1.73;;;;;;;;;;5088973;28;20081;-61
2021/05/23 07:11:19;;;;;;;2.10;1.67;;;;;;;;;;5088808;28;20040;-61
2021/05/23 07:13:45;;;;;;;1.30;1.20;;;;;;;;;;5088853;28;20027;-61
2021/05/23 07:16:10;;;;;;;1.40;1.30;;;;;;;;;;5088741;28;20371;-61
2021/05/23 07:18:36;;;;;;;1.55;1.45;;;;;;;;;;5088401;28;20098;-61
2021/05/23 07:21:01;;;;;;;2.60;1.60;;;;;;;;;;5088863;28;20501;-61
2021/05/23 07:23:27;;;;;;;3.28;1.90;;;;;;;;;;5087143;28;20069;-63
2021/05/23 07:25:53;;;;;;;2.30;1.67;;;;;;;;;;5088792;28;20468;-63
2021/05/23 07:28:18;;;;;;;1.92;1.50;;;;;;;;;;5086936;28;20024;-70
2021/05/23 07:30:44;;;;;;;2.22;1.58;;;;;;;;;;5088399;28;20436;-70
2021/05/23 07:33:10;;;;;;;1.65;1.45;;;;;;;;;;5088388;28;20028;-70
2021/05/23 07:35:36;;;;;;;2.97;1.40;;;;;;;;;;5088120;28;20044;-69
2021/05/23 07:38:02;;;;;;;2.33;1.95;;;;;;;;;;5088338;28;20036;-64
2021/05/23 07:40:28;;;;;;;1.98;1.85;;;;;;;;;;5088496;28;20032;-64
2021/05/23 07:42:53;;;;;;;1.30;1.20;;;;;;;;;;5088403;28;20441;-64
2021/05/23 07:45:19;;;;;;;2.10;1.60;;;;;;;;;;5088468;28;20466;-64
2021/05/23 07:47:44;;;;;;;2.40;1.67;;;;;;;;;;5088358;28;20036;-64
2021/05/23 07:50:10;;;;;;;2.50;1.73;;;;;;;;;;5089341;28;20048;-64
2021/05/23 07:52:36;;;;;;;2.00;1.60;;;;;;;;;;5092546;28;20038;-63
2021/05/23 07:55:02;;;;;;;1.75;1.60;;;;;;;;;;5092724;28;20032;-63
2021/05/23 07:57:28;;;;;;;1.60;1.50;;;;;;;;;;5092719;28;20036;-63
2021/05/23 07:59:53;;;;;;;1.50;1.40;;;;;;;;;;5092174;28;20024;-63
2021/05/23 08:02:19;;;;;;;3.67;1.83;;;;;;;;;;5092586;28;20119;-64
2021/05/23 08:04:44;;;;;;;1.38;1.27;;;;;;;;;;5092284;28;20058;-63
2021/05/23 08:07:10;;;;;;;3.65;1.60;;;;;;;;;;5092401;28;20506;-63
2021/05/23 08:09:35;;;;;;;1.73;1.50;;;;;;;;;;5092089;28;20417;-64
2021/05/23 08:12:01;;;;;;;2.78;1.83;;;;;;;;;;5092265;28;20028;-64
2021/05/23 08:14:27;;;;;;;2.92;1.80;;;;;;;;;;5090745;28;20389;-64
2021/05/23 08:16:52;;;;;;;1.73;1.50;;;;;;;;;;5092235;28;20567;-64
2021/05/23 08:19:19;;;;;;;2.78;1.95;;;;;;;;;;5091740;28;20436;-63
2021/05/23 08:21:45;;;;;;;1.60;1.50;;;;;;;;;;5091941;28;20081;-63
2021/05/23 08:24:11;;;;;;;2.25;1.30;;;;;;;;;;5091946;28;20024;-63
2021/05/23 08:26:36;;;;;;;2.45;1.77;;;;;;;;;;5091982;28;20028;-64
2021/05/23 08:29:02;;;;;;;2.85;1.77;;;;;;;;;;5091713;28;20043;-63
2021/05/23 08:31:28;;;;;;;1.95;1.70;;;;;;;;;;5091834;28;20119;-64
2021/05/23 08:33:53;;;;;;;1.85;1.67;;;;;;;;;;5091584;28;20430;-63
2021/05/23 08:36:19;;;;;;;3.70;2.45;;;;;;;;;;5091902;28;20080;-62
2021/05/23 08:38:45;;;;;;;4.10;2.38;;;;;;;;;;5091420;28;20031;-62
2021/05/23 08:41:10;;;;;;;4.65;3.35;;;;;;;;;;5091540;28;20162;-62
2021/05/23 08:43:36;;;;;;;3.05;2.33;;;;;;;;;;5091636;28;20078;-63
2021/05/23 08:46:02;;;;;;;4.90;2.58;;;;;;;;;;5091733;28;20032;-62
2021/05/23 08:48:27;;;;;;;4.82;3.17;;;;;;;;;;5091207;28;20056;-61
2021/05/23 08:50:53;;;;;;;2.38;2.17;;;;;;;;;;5091347;28;20513;-61
2021/05/23 08:53:18;;;;;;;3.75;2.35;;;;;;;;;;5091296;28;20062;-61
2021/05/23 08:55:45;;;;;;;5.88;3.17;;;;;;;;;;5091603;28;20032;-61
2021/05/23 08:58:10;;;;;;;2.97;2.42;;;;;;;;;;5091256;28;20035;-61
2021/05/23 09:00:36;;;;;;;1.73;1.60;;;;;;;;;;5091241;28;20116;-61
2021/05/23 09:03:03;;;;;;;4.43;2.47;;;;;;;;;;5088991;28;20032;-61
2021/05/23 09:05:28;;;;;;;3.00;2.08;;;;;;;;;;5091185;28;20024;-61
2021/05/23 09:07:54;;;;;;;1.75;1.65;;;;;;;;;;5090926;28;20038;-61
2021/05/23 09:10:23;;;;;;;6.18;3.72;;;;;;;;;;5091105;28;20149;-61
2021/05/23 09:12:49;;;;;;;9.15;6.32;;;;;;;;;;5091150;28;20039;-61
2021/05/23 09:15:15;;;;;;;3.55;2.53;;;;;;;;;;5089443;28;20031;-61
2021/05/23 09:17:40;;;;;;;2.38;2.17;;;;;;;;;;5090950;28;20444;-61
2021/05/23 09:20:06;;;;;;;2.60;1.85;;;;;;;;;;5090625;28;20384;-61
2021/05/23 09:22:32;;;;;;;2.85;1.70;;;;;;;;;;5090947;28;20088;-61
2021/05/23 09:25:03;;;;;;;2.10;1.63;;;;;;;;;;5091053;28;20540;-61
2021/05/23 09:27:30;;;;;;;3.05;1.48;;;;;;;;;;5090590;28;20100;-61
2021/05/23 09:30:01;;;;;;;1.67;1.58;;;;;;;;;;5090532;28;20032;-61
2021/05/23 09:32:27;;;;;;;5.40;2.67;;;;;;;;;;5090818;28;20035;-63
2021/05/23 09:35:00;;;;;;;3.92;2.38;;;;;;;;;;5090294;28;20036;-61
2021/05/23 09:37:26;;;;;;;4.60;3.10;;;;;;;;;;5089100;28;20034;-61
2021/05/23 09:39:52;;;;;;;5.63;3.25;;;;;;;;;;5090584;28;20040;-61
2021/05/23 09:42:17;;;;;;;3.30;2.13;;;;;;;;;;5090424;28;20032;-62
2021/05/23 09:44:43;;;;;;;3.70;2.10;;;;;;;;;;5090289;28;20020;-62
2021/05/23 09:47:10;;;;;;;19.13;4.85;;;;;;;;;;5090327;28;20051;-61
2021/05/23 09:49:43;;;;;;;8.80;2.75;;;;;;;;;;5090002;28;20363;-61
2021/05/23 09:52:09;;;;;;;2.80;1.90;;;;;;;;;;5093843;28;20028;-60
2021/05/23 09:55:01;;;;;;;3.38;2.15;;;;;;;;;;5093559;28;20024;-65
2021/05/23 09:57:28;;;;;;;2.30;1.88;;;;;;;;;;5092906;28;20044;-65
2021/05/23 10:00:03;;;;;;;2.95;2.00;;;;;;;;;;5094993;28;20378;-65
2021/05/23 10:02:31;;;;;;;3.30;1.88;;;;;;;;;;5094684;28;20070;-65
2021/05/23 10:05:06;;;;;;;2.08;1.92;;;;;;;;;;5094723;28;20043;-63
2021/05/23 10:07:33;;;;;;;1.85;1.67;;;;;;;;;;5094526;28;20020;-63
2021/05/23 10:09:59;;;;;;;1.75;1.65;;;;;;;;;;5092574;28;20020;-64
2021/05/23 10:12:24;;;;;;;1.88;1.70;;;;;;;;;;5092508;28;20040;-63
2021/05/23 10:14:50;;;;;;;1.77;1.40;;;;;;;;;;5090028;28;20023;-64
2021/05/23 10:17:15;;;;;;;4.40;1.30;;;;;;;;;;5092403;28;20020;-63
2021/05/23 10:19:42;;;;;;;2.05;1.42;;;;;;;;;;5092518;28;20027;-63
2021/05/23 10:22:07;;;;;;;1.77;1.65;;;;;;;;;;5091987;28;20493;-63
2021/05/23 10:24:38;;;;;;;3.42;1.90;;;;;;;;;;5093674;28;20024;-63
2021/05/23 10:27:04;;;;;;;7.88;4.40;;;;;;;;;;5093193;28;20028;-63
2021/05/23 10:29:30;;;;;;;2.92;1.98;;;;;;;;;;5094284;28;20111;-63
2021/05/23 10:32:04;;;;;;;2.10;1.50;;;;;;;;;;5094179;28;20028;-63
2021/05/23 10:34:36;;;;;;;1.42;1.17;;;;;;;;;;5093982;28;20035;-63
2021/05/23 10:37:02;;;;;;;1.67;1.00;;;;;;;;;;5093015;28;20036;-63
2021/05/23 10:39:34;;;;;;;1.20;0.98;;;;;;;;;;5094091;28;20039;-63
2021/05/23 10:42:04;;;;;;;1.23;1.10;;;;;;;;;;5094051;28;20035;-63
2021/05/23 10:44:38;;;;;;;1.65;1.30;;;;;;;;;;5093990;28;20045;-63
2021/05/23 10:47:08;;;;;;;1.40;1.17;;;;;;;;;;5093880;28;20031;-63
2021/05/23 10:49:34;;;;;;;1.35;1.20;;;;;;;;;;5093969;28;20081;-64
2021/05/23 10:52:00;;;;;;;1.70;1.00;;;;;;;;;;5093937;28;20019;-63
2021/05/23 10:54:26;;;;;;;1.08;0.98;;;;;;;;;;5093640;28;20028;-64
2021/05/23 10:56:58;;;;;;;2.78;1.10;;;;;;;;;;5093779;28;20027;-64
2021/05/23 10:59:29;;;;;;;2.33;1.05;;;;;;;;;;5093782;28;20032;-63
2021/05/23 11:01:55;;;;;;;1.30;1.20;;;;;;;;;;5093800;28;20034;-63
2021/05/23 11:04:24;;;;;;;1.42;1.20;;;;;;;;;;5093697;28;20012;-64
2021/05/23 11:06:50;;;;;;;1.60;1.30;;;;;;;;;;5092403;28;20078;-63
2021/05/23 11:09:17;;;;;;;1.60;1.30;;;;;;;;;;5093643;28;20020;-63
2021/05/23 11:11:43;;;;;;;1.75;1.55;;;;;;;;;;5093531;28;20024;-64
2021/05/23 11:14:12;;;;;;;2.38;1.73;;;;;;;;;;5092110;28;20114;-63
2021/05/23 11:16:44;;;;;;;2.13;1.70;;;;;;;;;;5091968;28;20393;-63
2021/05/23 11:19:11;;;;;;;2.33;1.75;;;;;;;;;;5093361;28;20085;-64
2021/05/23 11:21:44;;;;;;;1.77;1.42;;;;;;;;;;5093286;28;20024;-63
2021/05/23 11:24:10;;;;;;;2.00;1.67;;;;;;;;;;5093287;28;20051;-64
2021/05/23 11:26:36;;;;;;;3.08;1.80;;;;;;;;;;5092882;28;20008;-63
2021/05/23 11:29:02;;;;;;;3.03;1.70;;;;;;;;;;5093137;28;20028;-63
2021/05/23 11:31:30;;;;;;;2.65;2.17;;;;;;;;;;5093366;28;20019;-64
2021/05/23 11:33:55;;;;;;;2.65;1.95;;;;;;;;;;5093180;28;20549;-63
2021/05/23 11:36:21;;;;;;;2.28;2.00;;;;;;;;;;5093124;28;20119;-63
2021/05/23 11:38:47;;;;;;;2.55;2.03;;;;;;;;;;5093205;28;20024;-63
2021/05/23 11:41:13;;;;;;;5.35;2.40;;;;;;;;;;5093084;28;20092;-63
2021/05/23 11:43:39;;;;;;;3.40;2.17;;;;;;;;;;5092070;28;20030;-63
2021/05/23 11:46:06;;;;;;;1.92;1.63;;;;;;;;;;5093024;28;20021;-63
2021/05/23 11:48:39;;;;;;;1.85;1.20;;;;;;;;;;5092996;28;20024;-64
2021/05/23 11:51:06;;;;;;;1.65;0.90;;;;;;;;;;5091976;28;20035;-64
2021/05/23 11:53:35;;;;;;;2.17;0.98;;;;;;;;;;5093083;28;20428;-63
2021/05/23 11:56:00;;;;;;;1.73;0.80;;;;;;;;;;5093118;28;20030;-63
2021/05/23 11:58:26;;;;;;;1.30;0.88;;;;;;;;;;5093069;28;20094;-63
2021/05/23 12:00:51;;;;;;;1.40;0.90;;;;;;;;;;5093090;28;20485;-63
2021/05/23 12:03:17;;;;;;;1.08;0.85;;;;;;;;;;5093005;28;20045;-63
2021/05/23 12:05:43;;;;;;;0.90;0.70;;;;;;;;;;5108687;28;20456;-63
2021/05/23 12:08:18;;;;;;;2.45;0.70;;;;;;;;;;5091705;28;20024;-63
2021/05/23 12:10:56;;;;;;;1.67;0.80;;;;;;;;;;5092956;28;20030;-63
2021/05/23 12:13:21;;;;;;;1.00;0.75;;;;;;;;;;5092746;28;20039;-63
2021/05/23 12:15:55;;;;;;;0.95;0.82;;;;;;;;;;5092893;28;20106;-63
2021/05/23 12:18:20;;;;;;;2.05;1.02;;;;;;;;;;5093036;28;20427;-63
2021/05/23 12:20:46;;;;;;;1.33;1.10;;;;;;;;;;5092813;28;20020;-63
2021/05/23 12:23:12;;;;;;;2.25;0.93;;;;;;;;;;5092697;28;20462;-63
2021/05/23 12:25:37;;;;;;;0.93;0.90;;;;;;;;;;5091409;28;20031;-63
2021/05/23 12:28:03;;;;;;;0.80;0.70;;;;;;;;;;5092734;28;20020;-63
2021/05/23 12:30:30;;;;;;;0.93;0.80;;;;;;;;;;5092702;28;20427;-63
2021/05/23 12:32:57;;;;;;;0.98;0.60;;;;;;;;;;5092643;28;20032;-63
2021/05/23 12:35:27;;;;;;;2.53;0.70;;;;;;;;;;5092325;28;20097;-63
2021/05/23 12:38:03;;;;;;;1.52;0.70;;;;;;;;;;5093413;28;20042;-63
2021/05/23 12:40:32;;;;;;;0.85;0.63;;;;;;;;;;5096380;28;20020;-63
2021/05/23 12:43:13;;;;;;;1.27;0.60;;;;;;;;;;5096126;28;20107;-63
2021/05/23 12:45:39;;;;;;;1.13;0.50;;;;;;;;;;5096338;28;20466;-63
2021/05/23 12:48:06;;;;;;;1.95;0.50;;;;;;;;;;5096254;28;20016;-63
2021/05/23 12:50:51;;;;;;;0.50;0.50;;;;;;;;;;5096202;28;20415;-63
2021/05/23 12:53:20;;;;;;;0.30;0.30;;;;;;;;;;5096259;28;20485;-63
2021/05/23 12:55:46;;;;;;;0.30;0.30;;;;;;;;;;5096227;28;20020;-63
2021/05/23 12:58:11;;;;;;;0.70;0.40;;;;;;;;;;5096115;28;20024;-63
2021/05/23 13:00:41;;;;;;;0.88;0.50;;;;;;;;;;5096037;28;20020;-63
2021/05/23 13:03:07;;;;;;;0.57;0.40;;;;;;;;;;5095931;28;20123;-63
2021/05/23 13:05:34;;;;;;;0.60;0.50;;;;;;;;;;5096016;28;20016;-63
2021/05/23 13:07:59;;;;;;;2.15;0.90;;;;;;;;;;5095929;28;20480;-63
2021/05/23 13:10:32;;;;;;;1.52;0.85;;;;;;;;;;5095615;28;20095;-63
2021/05/23 13:13:01;;;;;;;2.13;1.25;;;;;;;;;;5095832;28;20031;-63
2021/05/23 13:15:28;;;;;;;3.15;1.50;;;;;;;;;;5094435;28;20019;-63
2021/05/23 13:17:53;;;;;;;5.07;4.53;;;;;;;;;;5095810;28;20028;-63
2021/05/23 13:20:26;;;;;;;2.70;2.50;;;;;;;;;;5095622;28;20489;-63
2021/05/23 13:22:53;;;;;;;1.67;1.58;;;;;;;;;;5095614;28;20023;-63
2021/05/23 13:25:20;;;;;;;2.70;2.00;;;;;;;;;;5095467;28;20489;-63
2021/05/23 13:27:49;;;;;;;3.05;2.15;;;;;;;;;;5095490;28;20031;-63
2021/05/23 13:30:14;;;;;;;1.95;1.60;;;;;;;;;;5095313;28;20031;-63
2021/05/23 13:32:40;;;;;;;3.65;2.08;;;;;;;;;;5095462;28;20028;-63
2021/05/23 13:35:05;;;;;;;3.17;2.10;;;;;;;;;;5094973;28;20490;-64
2021/05/23 13:37:31;;;;;;;2.80;2.20;;;;;;;;;;5094064;28;20034;-63
2021/05/23 13:39:57;;;;;;;4.10;2.55;;;;;;;;;;5095331;28;20510;-63
2021/05/23 13:42:22;;;;;;;3.67;2.60;;;;;;;;;;5095136;28;20428;-63
2021/05/23 13:44:48;;;;;;;5.65;3.30;;;;;;;;;;5095081;28;20020;-63
2021/05/23 13:47:15;;;;;;;6.68;3.97;;;;;;;;;;5095106;28;20028;-63
2021/05/23 13:49:41;;;;;;;7.07;4.40;;;;;;;;;;5094883;28;20016;-63
2021/05/23 13:52:06;;;;;;;5.18;3.55;;;;;;;;;;5095184;28;20367;-63
2021/05/23 13:54:32;;;;;;;4.55;3.17;;;;;;;;;;5094947;28;20095;-63
2021/05/23 13:56:58;;;;;;;4.85;3.53;;;;;;;;;;5095087;28;20143;-63
2021/05/23 13:59:23;;;;;;;5.57;2.72;;;;;;;;;;5094846;28;20027;-63
2021/05/23 14:01:49;;;;;;;3.33;2.63;;;;;;;;;;5093538;28;20031;-63
2021/05/23 14:04:15;;;;;;;2.85;1.88;;;;;;;;;;5094695;28;20069;-63
2021/05/23 14:06:41;;;;;;;3.25;1.88;;;;;;;;;;5094711;28;20035;-63
2021/05/23 14:09:06;;;;;;;2.92;1.58;;;;;;;;;;5093544;28;20028;-63
2021/05/23 14:11:32;;;;;;;3.90;1.80;;;;;;;;;;5094646;28;20177;-63
2021/05/23 14:13:57;;;;;;;1.85;1.58;;;;;;;;;;5094626;28;20145;-63
2021/05/23 14:16:22;;;;;;;2.10;1.63;;;;;;;;;;5094541;28;20039;-63
2021/05/23 14:18:48;;;;;;;2.35;1.60;;;;;;;;;;5094597;28;20027;-63
2021/05/23 14:21:13;;;;;;;3.55;3.25;;;;;;;;;;5094369;28;20035;-63
2021/05/23 14:23:39;;;;;;;5.85;5.18;;;;;;;;;;5094409;28;20012;-63
2021/05/23 14:26:05;;;;;;;6.80;5.80;;;;;;;;;;5094269;28;20111;-63
2021/05/23 14:28:32;;;;;;;6.63;5.40;;;;;;;;;;5093025;28;20027;-63
2021/05/23 14:30:58;;;;;;;4.82;4.30;;;;;;;;;;5094358;28;20035;-63
2021/05/23 14:33:24;;;;;;;4.50;4.07;;;;;;;;;;5094304;28;20020;-63
2021/05/23 14:35:53;;;;;;;6.78;5.97;;;;;;;;;;5093598;28;20051;-63
2021/05/23 14:38:19;;;;;;;8.43;7.07;;;;;;;;;;5092877;28;20032;-63